Time;durP1;ratioP1;P1;durP2;ratioP2;P2;SDS_P1;SDS_P2;PMS_P1;PMS_P2;Temp;Humidity;BMP_temperature;BMP_pressure;BME280_temperature;BME280_humidity;BME280_pressure;Samples;Min_cycle;Max_cycle;Signal;HPM_P1;HPM_P2
2021/10/26 00:01:49;;;;;;;20.35;10.15;;;;;;;;;;5047644;28;20124;-64
2021/10/26 00:04:15;;;;;;;20.13;9.40;;;;;;;;;;5047378;28;20028;-64
2021/10/26 00:06:42;;;;;;;18.08;9.68;;;;;;;;;;5047960;28;20057;-64
2021/10/26 00:09:08;;;;;;;21.40;8.80;;;;;;;;;;5049962;28;20045;-64
2021/10/26 00:11:34;;;;;;;15.73;8.27;;;;;;;;;;5054055;28;20460;-64
2021/10/26 00:14:00;;;;;;;14.38;8.32;;;;;;;;;;5049790;28;20498;-65
2021/10/26 00:16:27;;;;;;;16.52;8.38;;;;;;;;;;5050939;28;20112;-65
2021/10/26 00:18:53;;;;;;;16.90;8.15;;;;;;;;;;5051762;28;20063;-64
2021/10/26 00:21:19;;;;;;;14.75;7.70;;;;;;;;;;5051376;28;20094;-64
2021/10/26 00:23:45;;;;;;;14.32;7.35;;;;;;;;;;5054748;28;20024;-65
2021/10/26 00:26:11;;;;;;;19.65;8.98;;;;;;;;;;5052782;28;20442;-64
2021/10/26 00:28:37;;;;;;;16.52;8.45;;;;;;;;;;5051296;28;20060;-65
2021/10/26 00:31:03;;;;;;;22.48;9.35;;;;;;;;;;5050758;28;20032;-64
2021/10/26 00:33:29;;;;;;;20.08;9.63;;;;;;;;;;5050583;28;20042;-64
2021/10/26 00:35:55;;;;;;;20.38;8.95;;;;;;;;;;5053639;28;20488;-64
2021/10/26 00:38:22;;;;;;;21.35;9.43;;;;;;;;;;5052111;28;20086;-64
2021/10/26 00:40:48;;;;;;;17.92;8.60;;;;;;;;;;5050660;28;20041;-64
2021/10/26 00:43:14;;;;;;;19.90;9.63;;;;;;;;;;5051177;28;20074;-64
2021/10/26 00:45:40;;;;;;;16.55;8.85;;;;;;;;;;5051152;28;20041;-64
2021/10/26 00:48:06;;;;;;;19.77;9.13;;;;;;;;;;5052773;28;20591;-64
2021/10/26 00:50:32;;;;;;;21.20;8.90;;;;;;;;;;5052917;28;20029;-65
2021/10/26 00:52:58;;;;;;;20.88;9.30;;;;;;;;;;5050653;28;20032;-64
2021/10/26 00:55:24;;;;;;;16.17;8.32;;;;;;;;;;5050678;28;20025;-65
2021/10/26 00:57:51;;;;;;;18.75;9.38;;;;;;;;;;5051094;28;20028;-64
2021/10/26 01:00:18;;;;;;;20.80;8.13;;;;;;;;;;5034796;28;20142;-64
2021/10/26 01:02:44;;;;;;;18.63;9.30;;;;;;;;;;5053949;28;20102;-64
2021/10/26 01:05:11;;;;;;;14.48;7.93;;;;;;;;;;5050845;28;20115;-64
2021/10/26 01:07:37;;;;;;;17.80;9.50;;;;;;;;;;5050659;28;20052;-64
2021/10/26 01:10:04;;;;;;;16.30;7.97;;;;;;;;;;5050622;28;20029;-64
2021/10/26 01:12:30;;;;;;;19.15;9.88;;;;;;;;;;5050351;28;20034;-64
2021/10/26 01:14:56;;;;;;;18.23;9.43;;;;;;;;;;5052620;28;20029;-64
2021/10/26 01:17:23;;;;;;;31.75;9.63;;;;;;;;;;5053118;28;20044;-64
2021/10/26 01:19:50;;;;;;;19.98;8.38;;;;;;;;;;5050493;28;20033;-64
2021/10/26 01:22:17;;;;;;;17.17;8.27;;;;;;;;;;5049891;28;20104;-64
2021/10/26 01:24:43;;;;;;;22.38;7.85;;;;;;;;;;5049982;28;20090;-65
2021/10/26 01:27:09;;;;;;;15.57;8.00;;;;;;;;;;5052052;28;20041;-64
2021/10/26 01:29:35;;;;;;;14.68;8.02;;;;;;;;;;5051996;28;20025;-64
2021/10/26 01:32:03;;;;;;;19.27;9.38;;;;;;;;;;5050363;28;20483;-64
2021/10/26 01:34:29;;;;;;;23.08;10.68;;;;;;;;;;5049870;28;20029;-64
2021/10/26 01:36:57;;;;;;;18.55;9.35;;;;;;;;;;5049852;28;20107;-64
2021/10/26 01:39:23;;;;;;;20.23;9.65;;;;;;;;;;5048788;28;20114;-64
2021/10/26 01:41:49;;;;;;;17.85;9.95;;;;;;;;;;5053335;28;20071;-64
2021/10/26 01:44:16;;;;;;;23.33;9.73;;;;;;;;;;5050124;28;20025;-64
2021/10/26 01:46:42;;;;;;;19.20;9.63;;;;;;;;;;5049760;28;20029;-64
2021/10/26 01:49:08;;;;;;;18.73;9.55;;;;;;;;;;5049865;28;20102;-64
2021/10/26 01:51:34;;;;;;;22.02;10.88;;;;;;;;;;5049355;28;20052;-64
2021/10/26 01:54:00;;;;;;;17.92;9.80;;;;;;;;;;5052125;28;20032;-64
2021/10/26 01:56:26;;;;;;;18.58;10.15;;;;;;;;;;5051031;28;20033;-66
2021/10/26 01:58:52;;;;;;;22.45;9.75;;;;;;;;;;5049225;28;20025;-65
2021/10/26 02:01:18;;;;;;;19.10;9.07;;;;;;;;;;5049330;28;20047;-65
2021/10/26 02:03:44;;;;;;;16.45;8.80;;;;;;;;;;5049654;28;20028;-65
2021/10/26 02:06:10;;;;;;;19.17;10.20;;;;;;;;;;5049673;28;20029;-65
2021/10/26 02:08:36;;;;;;;15.20;8.38;;;;;;;;;;5052032;28;20017;-66
2021/10/26 02:11:02;;;;;;;15.90;8.63;;;;;;;;;;5049313;28;20086;-65
2021/10/26 02:13:28;;;;;;;18.60;8.30;;;;;;;;;;5050443;28;20480;-65
2021/10/26 02:15:54;;;;;;;22.13;9.93;;;;;;;;;;5048714;28;20021;-65
2021/10/26 02:18:20;;;;;;;20.92;9.25;;;;;;;;;;5049783;28;20036;-65
2021/10/26 02:20:46;;;;;;;17.50;9.48;;;;;;;;;;5052999;28;20037;-64
2021/10/26 02:23:12;;;;;;;19.58;8.77;;;;;;;;;;5049241;28;20036;-65
2021/10/26 02:25:38;;;;;;;15.98;8.50;;;;;;;;;;5049320;28;20028;-65
2021/10/26 02:28:04;;;;;;;23.95;7.35;;;;;;;;;;5048668;28;20436;-64
2021/10/26 02:30:30;;;;;;;15.27;7.30;;;;;;;;;;5048921;28;20025;-65
2021/10/26 02:32:56;;;;;;;19.15;7.80;;;;;;;;;;5050511;28;20045;-64
2021/10/26 02:35:22;;;;;;;14.55;8.30;;;;;;;;;;5051490;28;20185;-65
2021/10/26 02:37:48;;;;;;;18.30;8.07;;;;;;;;;;5050720;28;20021;-65
2021/10/26 02:40:14;;;;;;;16.50;8.48;;;;;;;;;;5050680;28;20036;-65
2021/10/26 02:42:40;;;;;;;18.40;8.70;;;;;;;;;;5050413;28;20116;-65
2021/10/26 02:45:07;;;;;;;24.25;9.77;;;;;;;;;;5050293;28;20029;-64
2021/10/26 02:47:33;;;;;;;18.65;9.57;;;;;;;;;;5052123;28;20488;-66
2021/10/26 02:49:59;;;;;;;14.70;8.50;;;;;;;;;;5050572;28;20079;-65
2021/10/26 02:52:25;;;;;;;19.55;9.10;;;;;;;;;;5050413;28;20028;-64
2021/10/26 02:54:51;;;;;;;21.15;9.60;;;;;;;;;;5049982;28;20028;-65
2021/10/26 02:57:17;;;;;;;20.17;9.02;;;;;;;;;;5049928;28;20039;-65
2021/10/26 02:59:43;;;;;;;24.23;9.63;;;;;;;;;;5051614;28;21421;-65
2021/10/26 03:02:09;;;;;;;18.38;8.68;;;;;;;;;;5048670;28;20041;-65
2021/10/26 03:04:35;;;;;;;16.98;8.07;;;;;;;;;;5049526;28;20027;-65
2021/10/26 03:07:01;;;;;;;18.75;8.60;;;;;;;;;;5050327;28;20110;-65
2021/10/26 03:09:27;;;;;;;14.68;7.50;;;;;;;;;;5049937;28;20464;-66
2021/10/26 03:11:53;;;;;;;17.83;7.75;;;;;;;;;;5050263;28;20059;-65
2021/10/26 03:14:19;;;;;;;17.00;7.65;;;;;;;;;;5050520;28;20064;-66
2021/10/26 03:16:45;;;;;;;16.52;7.43;;;;;;;;;;5049982;28;20071;-64
2021/10/26 03:19:11;;;;;;;16.15;7.18;;;;;;;;;;5047498;28;20112;-65
2021/10/26 03:21:38;;;;;;;14.93;7.82;;;;;;;;;;5048240;28;20048;-65
2021/10/26 03:24:05;;;;;;;15.32;7.38;;;;;;;;;;5050040;28;20381;-65
2021/10/26 03:26:31;;;;;;;17.98;7.65;;;;;;;;;;5049847;28;20429;-64
2021/10/26 03:28:57;;;;;;;13.85;7.25;;;;;;;;;;5048356;28;20534;-65
2021/10/26 03:31:23;;;;;;;16.83;7.53;;;;;;;;;;5047839;28;20115;-63
2021/10/26 03:33:50;;;;;;;15.10;7.95;;;;;;;;;;5048396;28;20040;-65
2021/10/26 03:36:17;;;;;;;17.10;8.05;;;;;;;;;;5048031;28;20056;-64
2021/10/26 03:38:43;;;;;;;16.98;7.35;;;;;;;;;;5051232;28;20468;-65
2021/10/26 03:41:09;;;;;;;25.98;8.27;;;;;;;;;;5048154;28;20488;-63
2021/10/26 03:43:36;;;;;;;16.63;8.40;;;;;;;;;;5048192;28;20028;-65
2021/10/26 03:46:02;;;;;;;17.98;7.57;;;;;;;;;;5053958;28;20041;-64
2021/10/26 03:48:28;;;;;;;19.30;9.05;;;;;;;;;;5053909;28;20021;-64
2021/10/26 03:50:54;;;;;;;20.52;8.45;;;;;;;;;;5055083;28;20111;-64
2021/10/26 03:53:20;;;;;;;18.15;8.05;;;;;;;;;;5056024;28;20100;-64
2021/10/26 03:55:46;;;;;;;15.25;7.75;;;;;;;;;;5052678;28;20112;-64
2021/10/26 03:58:12;;;;;;;16.23;7.80;;;;;;;;;;5054487;28;20506;-64
2021/10/26 04:00:38;;;;;;;15.07;7.28;;;;;;;;;;5054577;28;20037;-64
2021/10/26 04:03:05;;;;;;;13.63;7.18;;;;;;;;;;5056404;28;20060;-64
2021/10/26 04:05:42;;;;;;;12.88;6.72;;;;;;;;;;5055997;28;20051;-64
2021/10/26 04:08:21;;;;;;;11.93;6.43;;;;;;;;;;5053996;28;20029;-64
2021/10/26 04:10:53;;;;;;;14.32;6.70;;;;;;;;;;5054265;28;20021;-64
2021/10/26 04:13:20;;;;;;;13.73;7.00;;;;;;;;;;5053749;28;20043;-64
2021/10/26 04:15:46;;;;;;;13.75;6.85;;;;;;;;;;5054050;28;20017;-64
2021/10/26 04:18:12;;;;;;;15.98;6.82;;;;;;;;;;5055801;28;20039;-64
2021/10/26 04:20:38;;;;;;;13.93;6.68;;;;;;;;;;5056419;28;20064;-64
2021/10/26 04:23:04;;;;;;;14.38;7.05;;;;;;;;;;5055725;28;20033;-64
2021/10/26 04:25:32;;;;;;;11.70;5.70;;;;;;;;;;5056315;28;20115;-65
2021/10/26 04:27:58;;;;;;;13.75;5.63;;;;;;;;;;5055852;28;20021;-64
2021/10/26 04:30:24;;;;;;;11.55;6.38;;;;;;;;;;5052823;28;20705;-65
2021/10/26 04:32:50;;;;;;;15.40;6.78;;;;;;;;;;5057148;28;20045;-64
2021/10/26 04:35:16;;;;;;;16.17;7.13;;;;;;;;;;5054893;28;20037;-64
2021/10/26 04:37:42;;;;;;;11.77;6.40;;;;;;;;;;5053681;28;20032;-64
2021/10/26 04:40:09;;;;;;;11.52;6.20;;;;;;;;;;5054165;28;20412;-64
2021/10/26 04:42:36;;;;;;;11.57;5.55;;;;;;;;;;5053975;28;20044;-64
2021/10/26 04:45:03;;;;;;;12.47;6.47;;;;;;;;;;5056530;28;20469;-64
2021/10/26 04:47:29;;;;;;;12.43;6.15;;;;;;;;;;5055248;28;20103;-64
2021/10/26 04:49:55;;;;;;;12.95;6.32;;;;;;;;;;5053565;28;20118;-66
2021/10/26 04:52:21;;;;;;;12.52;6.35;;;;;;;;;;5053632;28;20485;-66
2021/10/26 04:54:47;;;;;;;16.13;7.60;;;;;;;;;;5054133;28;20025;-66
2021/10/26 04:57:13;;;;;;;15.07;7.72;;;;;;;;;;5051301;28;20040;-66
2021/10/26 04:59:39;;;;;;;14.15;6.95;;;;;;;;;;5053147;28;20083;-66
2021/10/26 05:02:05;;;;;;;12.68;6.20;;;;;;;;;;5050445;28;20037;-66
2021/10/26 05:04:31;;;;;;;19.23;8.35;;;;;;;;;;5050642;28;20035;-65
2021/10/26 05:06:57;;;;;;;15.40;8.13;;;;;;;;;;5050420;28;20435;-65
2021/10/26 05:09:23;;;;;;;14.23;7.70;;;;;;;;;;5051500;28;20071;-66
2021/10/26 05:11:49;;;;;;;13.25;7.18;;;;;;;;;;5054254;28;20036;-66
2021/10/26 05:14:15;;;;;;;18.75;7.20;;;;;;;;;;5052393;28;20031;-66
2021/10/26 05:16:43;;;;;;;15.57;7.60;;;;;;;;;;5050473;28;20021;-65
2021/10/26 05:19:10;;;;;;;13.73;6.82;;;;;;;;;;5050475;28;20025;-66
2021/10/26 05:21:36;;;;;;;15.23;6.95;;;;;;;;;;5050012;28;20030;-65
2021/10/26 05:24:03;;;;;;;16.35;7.20;;;;;;;;;;5052391;28;20037;-65
2021/10/26 05:26:29;;;;;;;14.93;7.43;;;;;;;;;;5051672;28;20025;-65
2021/10/26 05:28:55;;;;;;;13.95;6.57;;;;;;;;;;5050102;28;20033;-65
2021/10/26 05:31:21;;;;;;;16.75;6.75;;;;;;;;;;5048979;28;20370;-66
2021/10/26 05:33:47;;;;;;;15.77;7.68;;;;;;;;;;5050010;28;20041;-65
2021/10/26 05:36:14;;;;;;;20.95;7.90;;;;;;;;;;5051209;28;20037;-65
2021/10/26 05:38:40;;;;;;;19.40;8.43;;;;;;;;;;5053513;28;20021;-66
2021/10/26 05:41:06;;;;;;;16.10;7.75;;;;;;;;;;5050020;28;20045;-66
2021/10/26 05:43:32;;;;;;;13.95;6.43;;;;;;;;;;5050045;28;20079;-67
2021/10/26 05:45:58;;;;;;;16.77;7.85;;;;;;;;;;5049908;28;20036;-66
2021/10/26 05:48:24;;;;;;;12.68;7.13;;;;;;;;;;5049142;28;20064;-66
2021/10/26 05:50:50;;;;;;;12.63;6.40;;;;;;;;;;5052990;28;20074;-66
2021/10/26 05:53:16;;;;;;;10.90;6.07;;;;;;;;;;5051978;28;20491;-66
2021/10/26 05:55:43;;;;;;;12.30;6.78;;;;;;;;;;5049641;28;20431;-66
2021/10/26 05:58:11;;;;;;;13.43;6.30;;;;;;;;;;5049543;28;20031;-66
2021/10/26 06:00:37;;;;;;;;;;;;;;;;;;5049751;28;20037;-64
2021/10/26 06:03:03;;;;;;;12.77;6.65;;;;;;;;;;5051800;28;19904;-66
2021/10/26 06:05:29;;;;;;;12.65;6.28;;;;;;;;;;5050499;28;20082;-68
2021/10/26 06:07:57;;;;;;;9.70;4.90;;;;;;;;;;5049319;28;20029;-67
2021/10/26 06:10:23;;;;;;;11.25;5.93;;;;;;;;;;5049617;28;20067;-68
2021/10/26 06:12:53;;;;;;;11.18;6.05;;;;;;;;;;5049171;28;20025;-68
2021/10/26 06:15:19;;;;;;;12.80;6.05;;;;;;;;;;5042296;28;20025;-67
2021/10/26 06:17:45;;;;;;;11.40;6.55;;;;;;;;;;5052900;28;20430;-68
2021/10/26 06:20:11;;;;;;;11.90;6.47;;;;;;;;;;5048463;28;20045;-67
2021/10/26 06:22:37;;;;;;;13.02;6.70;;;;;;;;;;5049344;28;20441;-68
2021/10/26 06:25:04;;;;;;;10.35;5.97;;;;;;;;;;5049201;28;20032;-67
2021/10/26 06:27:30;;;;;;;13.48;6.00;;;;;;;;;;5048290;28;20034;-67
2021/10/26 06:29:59;;;;;;;12.23;7.32;;;;;;;;;;5051622;28;20025;-67
2021/10/26 06:32:25;;;;;;;13.02;8.25;;;;;;;;;;5051638;28;20045;-67
2021/10/26 06:34:51;;;;;;;13.85;7.78;;;;;;;;;;5048389;28;20071;-67
2021/10/26 06:37:17;;;;;;;13.90;7.10;;;;;;;;;;5049142;28;20515;-68
2021/10/26 06:39:43;;;;;;;12.40;7.38;;;;;;;;;;5048786;28;20108;-67
2021/10/26 06:42:09;;;;;;;10.80;6.68;;;;;;;;;;5050424;28;20120;-68
2021/10/26 06:44:35;;;;;;;13.48;7.10;;;;;;;;;;5049614;28;20392;-68
2021/10/26 06:47:01;;;;;;;10.85;6.35;;;;;;;;;;5049503;28;20039;-69
2021/10/26 06:49:27;;;;;;;11.95;6.80;;;;;;;;;;5048447;28;20035;-67
2021/10/26 06:51:53;;;;;;;12.18;6.43;;;;;;;;;;5048473;28;20691;-67
2021/10/26 06:54:19;;;;;;;9.68;6.00;;;;;;;;;;5049033;28;20019;-68
2021/10/26 06:56:45;;;;;;;13.02;6.88;;;;;;;;;;5051860;28;20116;-68
2021/10/26 06:59:11;;;;;;;11.18;6.95;;;;;;;;;;5048524;28;20052;-68
2021/10/26 07:01:37;;;;;;;13.95;7.25;;;;;;;;;;5048557;28;20044;-68
2021/10/26 07:04:03;;;;;;;17.00;9.90;;;;;;;;;;5047911;28;20580;-68
2021/10/26 07:06:29;;;;;;;15.23;8.13;;;;;;;;;;5048146;28;20022;-68
2021/10/26 07:08:55;;;;;;;13.75;6.72;;;;;;;;;;5049576;28;20021;-68
2021/10/26 07:11:21;;;;;;;12.40;7.47;;;;;;;;;;5050429;28;20056;-67
2021/10/26 07:13:49;;;;;;;11.20;6.80;;;;;;;;;;5047906;28;20036;-68
2021/10/26 07:16:15;;;;;;;11.27;6.50;;;;;;;;;;5048416;28;20036;-67
2021/10/26 07:18:41;;;;;;;9.80;5.68;;;;;;;;;;5047649;28;20033;-64
2021/10/26 07:21:07;;;;;;;9.82;4.97;;;;;;;;;;5050071;28;20386;-64
2021/10/26 07:23:34;;;;;;;13.10;5.15;;;;;;;;;;5049809;28;20102;-64
2021/10/26 07:26:00;;;;;;;13.77;4.75;;;;;;;;;;5049322;28;20028;-64
2021/10/26 07:28:26;;;;;;;9.25;4.75;;;;;;;;;;5048130;28;20166;-65
2021/10/26 07:30:52;;;;;;;8.32;5.32;;;;;;;;;;5048329;28;20127;-64
2021/10/26 07:33:22;;;;;;;12.55;5.15;;;;;;;;;;5048302;28;20048;-64
2021/10/26 07:35:50;;;;;;;11.75;4.95;;;;;;;;;;5051919;28;20440;-65
2021/10/26 07:38:27;;;;;;;8.32;4.95;;;;;;;;;;5048104;28;20068;-63
2021/10/26 07:40:54;;;;;;;8.77;4.72;;;;;;;;;;5048088;28;20028;-63
2021/10/26 07:43:21;;;;;;;17.08;5.22;;;;;;;;;;5048264;28;20020;-64
2021/10/26 07:45:47;;;;;;;15.60;6.07;;;;;;;;;;5049198;28;20033;-65
2021/10/26 07:48:13;;;;;;;13.13;5.68;;;;;;;;;;5048866;28;20034;-64
2021/10/26 07:50:39;;;;;;;10.35;5.45;;;;;;;;;;5050455;28;20028;-64
2021/10/26 07:53:05;;;;;;;11.30;5.25;;;;;;;;;;5047906;28;20056;-64
2021/10/26 07:55:32;;;;;;;10.57;5.13;;;;;;;;;;5047980;28;20021;-64
2021/10/26 07:57:58;;;;;;;9.32;4.60;;;;;;;;;;5047465;28;20025;-64
2021/10/26 08:00:24;;;;;;;9.98;4.60;;;;;;;;;;5047759;28;20041;-64
2021/10/26 08:02:51;;;;;;;8.52;5.43;;;;;;;;;;5050703;28;20028;-64
2021/10/26 08:05:18;;;;;;;10.20;5.53;;;;;;;;;;5049864;28;20502;-64
2021/10/26 08:07:44;;;;;;;12.02;6.93;;;;;;;;;;5047775;28;20091;-64
2021/10/26 08:10:10;;;;;;;9.20;6.43;;;;;;;;;;5048642;28;20489;-63
2021/10/26 08:12:36;;;;;;;7.85;4.75;;;;;;;;;;5047893;28;20039;-63
2021/10/26 08:15:02;;;;;;;8.52;5.13;;;;;;;;;;5049377;28;20056;-64
2021/10/26 08:17:28;;;;;;;7.68;4.22;;;;;;;;;;5050463;28;20034;-64
2021/10/26 08:19:54;;;;;;;6.35;3.42;;;;;;;;;;5047206;28;20073;-64
2021/10/26 08:22:23;;;;;;;6.40;2.95;;;;;;;;;;5047592;28;20025;-64
2021/10/26 08:24:57;;;;;;;6.47;3.20;;;;;;;;;;5049101;28;20036;-63
2021/10/26 08:27:24;;;;;;;6.40;2.95;;;;;;;;;;5032690;28;20051;-64
2021/10/26 08:30:01;;;;;;;7.05;2.85;;;;;;;;;;5050647;28;20027;-64
2021/10/26 08:32:42;;;;;;;7.70;3.17;;;;;;;;;;5052655;28;20041;-64
2021/10/26 08:35:18;;;;;;;4.47;2.33;;;;;;;;;;5051303;28;20036;-64
2021/10/26 08:37:49;;;;;;;7.80;2.75;;;;;;;;;;5050780;28;20024;-63
2021/10/26 08:40:17;;;;;;;12.43;3.00;;;;;;;;;;5051252;28;20031;-63
2021/10/26 08:42:44;;;;;;;7.78;3.38;;;;;;;;;;5051005;28;20040;-64
2021/10/26 08:45:10;;;;;;;7.20;3.28;;;;;;;;;;5046573;28;20039;-64
2021/10/26 08:47:37;;;;;;;5.97;2.70;;;;;;;;;;5053556;28;20029;-64
2021/10/26 08:50:03;;;;;;;5.03;2.55;;;;;;;;;;5050977;28;20358;-64
2021/10/26 08:52:29;;;;;;;7.07;2.55;;;;;;;;;;5050936;28;20495;-64
2021/10/26 08:54:55;;;;;;;5.03;2.60;;;;;;;;;;5053550;28;20025;-64
2021/10/26 08:57:21;;;;;;;5.18;2.50;;;;;;;;;;5051026;28;20032;-64
2021/10/26 08:59:48;;;;;;;5.47;2.88;;;;;;;;;;5053414;28;20017;-64
2021/10/26 09:02:14;;;;;;;9.02;2.78;;;;;;;;;;5050882;28;20403;-63
2021/10/26 09:04:40;;;;;;;5.78;2.38;;;;;;;;;;5053293;28;20104;-64
2021/10/26 09:07:17;;;;;;;7.10;2.15;;;;;;;;;;5050734;28;20053;-64
2021/10/26 09:09:43;;;;;;;3.70;2.08;;;;;;;;;;5050864;28;20025;-63
2021/10/26 09:17:34;;;;;;;5.45;2.30;;;;;;;;;;5052430;28;20076;-64
2021/10/26 09:20:01;;;;;;;4.28;2.10;;;;;;;;;;5050006;28;20370;-64
2021/10/26 09:22:28;;;;;;;4.65;2.42;;;;;;;;;;5051201;28;20100;-63
2021/10/26 09:24:54;;;;;;;4.53;2.25;;;;;;;;;;5055370;28;20022;-64
2021/10/26 09:27:21;;;;;;;5.93;2.67;;;;;;;;;;5050338;28;20040;-64
2021/10/26 09:29:48;;;;;;;7.05;2.30;;;;;;;;;;5053758;28;20021;-63
2021/10/26 09:32:17;;;;;;;5.17;2.70;;;;;;;;;;5051680;28;20056;-63
2021/10/26 09:34:45;;;;;;;5.40;2.60;;;;;;;;;;5052506;28;20819;-62
2021/10/26 09:37:13;;;;;;;5.05;2.40;;;;;;;;;;5050188;28;20072;-62
2021/10/26 09:39:39;;;;;;;5.10;2.42;;;;;;;;;;5049944;28;20041;-63
2021/10/26 09:42:07;;;;;;;6.78;2.65;;;;;;;;;;5050958;28;20537;-62
2021/10/26 09:44:38;;;;;;;5.43;2.67;;;;;;;;;;5051514;28;20540;-62
2021/10/26 09:47:04;;;;;;;5.75;3.10;;;;;;;;;;5049164;28;20116;-63
2021/10/26 09:49:33;;;;;;;5.45;2.75;;;;;;;;;;5050074;28;20100;-63
2021/10/26 09:52:18;;;;;;;5.78;3.00;;;;;;;;;;5049915;28;20051;-62
2021/10/26 09:54:47;;;;;;;6.25;2.90;;;;;;;;;;5054641;28;20032;-62
2021/10/26 09:57:15;;;;;;;7.05;3.10;;;;;;;;;;5050389;28;20029;-62
2021/10/26 09:59:46;;;;;;;4.95;2.70;;;;;;;;;;5052691;28;20028;-62
2021/10/26 10:02:15;;;;;;;7.28;2.78;;;;;;;;;;5050850;28;20091;-61
2021/10/26 10:04:43;;;;;;;5.57;2.45;;;;;;;;;;5052044;28;20021;-62
2021/10/26 10:07:10;;;;;;;7.35;3.30;;;;;;;;;;5049525;28;20021;-62
2021/10/26 10:09:36;;;;;;;5.32;2.60;;;;;;;;;;5049218;28;20123;-62
2021/10/26 10:12:04;;;;;;;7.47;3.30;;;;;;;;;;5051891;28;20067;-63
2021/10/26 10:14:30;;;;;;;7.28;2.92;;;;;;;;;;5061419;28;20031;-62
2021/10/26 10:16:57;;;;;;;7.38;2.70;;;;;;;;;;5051804;28;20025;-62
2021/10/26 10:19:23;;;;;;;4.50;2.50;;;;;;;;;;5049453;28;20025;-62
2021/10/26 10:21:50;;;;;;;3.92;2.30;;;;;;;;;;5050631;28;20033;-63
2021/10/26 10:24:18;;;;;;;6.70;2.47;;;;;;;;;;5055074;28;20022;-62
2021/10/26 10:26:49;;;;;;;5.43;2.65;;;;;;;;;;5052242;28;20288;-62
2021/10/26 10:29:15;;;;;;;4.82;2.40;;;;;;;;;;5048896;28;20032;-62
2021/10/26 10:31:42;;;;;;;6.90;2.90;;;;;;;;;;5048886;28;20029;-62
2021/10/26 10:34:09;;;;;;;4.27;2.47;;;;;;;;;;5051383;28;20036;-62
2021/10/26 10:36:40;;;;;;;5.68;2.40;;;;;;;;;;5048788;28;20286;-62
2021/10/26 10:39:07;;;;;;;5.18;2.42;;;;;;;;;;5050522;28;20060;-64
2021/10/26 10:41:35;;;;;;;6.13;2.70;;;;;;;;;;5050559;28;20047;-62
2021/10/26 10:44:02;;;;;;;4.45;2.65;;;;;;;;;;5055100;28;20016;-62
2021/10/26 10:46:36;;;;;;;4.55;2.28;;;;;;;;;;5055037;28;20040;-62
2021/10/26 10:49:23;;;;;;;7.05;2.55;;;;;;;;;;5048294;28;20033;-62
2021/10/26 10:51:53;;;;;;;5.68;2.50;;;;;;;;;;5048275;28;20033;-62
2021/10/26 10:54:50;;;;;;;6.45;2.60;;;;;;;;;;5043055;28;20480;-62
2021/10/26 10:57:20;;;;;;;5.82;2.58;;;;;;;;;;5051909;28;20117;-62
2021/10/26 10:59:53;;;;;;;8.20;2.60;;;;;;;;;;5052123;28;20031;-62
2021/10/26 11:02:25;;;;;;;6.45;2.50;;;;;;;;;;5048868;28;20374;-63
2021/10/26 11:04:52;;;;;;;6.82;2.70;;;;;;;;;;5050804;28;20088;-63
2021/10/26 11:07:37;;;;;;;5.22;2.22;;;;;;;;;;5048000;28;20049;-63
2021/10/26 11:10:04;;;;;;;6.20;2.60;;;;;;;;;;5048419;28;20017;-62
2021/10/26 11:12:31;;;;;;;5.47;2.65;;;;;;;;;;5046783;28;20036;-63
2021/10/26 11:14:57;;;;;;;5.95;3.13;;;;;;;;;;5064157;28;20020;-63
2021/10/26 11:17:35;;;;;;;6.65;3.15;;;;;;;;;;5050596;28;20025;-63
2021/10/26 11:20:03;;;;;;;7.00;2.97;;;;;;;;;;5047784;28;20021;-63
2021/10/26 11:22:48;;;;;;;5.47;3.03;;;;;;;;;;5050606;28;20021;-63
2021/10/26 11:25:34;;;;;;;6.95;3.40;;;;;;;;;;5052914;28;20071;-62
2021/10/26 11:28:02;;;;;;;8.88;3.42;;;;;;;;;;5048241;28;20024;-62
2021/10/26 11:30:28;;;;;;;;;;;;;;;;;;5048506;28;20065;-60
2021/10/26 11:33:12;;;;;;;6.65;3.10;;;;;;;;;;5050654;28;19917;-62
2021/10/26 11:35:41;;;;;;;6.72;2.92;;;;;;;;;;5052127;28;20472;-62
2021/10/26 11:38:12;;;;;;;6.93;3.15;;;;;;;;;;5047486;28;20083;-62
2021/10/26 11:40:37;;;;;;;10.40;3.10;;;;;;;;;;5047825;28;20141;-62
2021/10/26 11:43:04;;;;;;;6.93;2.95;;;;;;;;;;5047733;28;20526;-62
2021/10/26 11:45:32;;;;;;;8.90;3.47;;;;;;;;;;5061753;28;20018;-62
2021/10/26 11:47:58;;;;;;;5.87;3.20;;;;;;;;;;5049786;28;20018;-63
2021/10/26 11:50:23;;;;;;;9.80;3.53;;;;;;;;;;5048795;28;20086;-62
2021/10/26 11:52:50;;;;;;;10.13;3.80;;;;;;;;;;5047576;28;20021;-62
2021/10/26 11:55:28;;;;;;;9.38;3.50;;;;;;;;;;5053335;28;20056;-62
2021/10/26 11:57:56;;;;;;;8.93;3.88;;;;;;;;;;5047299;28;20097;-62
2021/10/26 12:00:22;;;;;;;6.90;3.30;;;;;;;;;;5047710;28;20083;-62
2021/10/26 12:02:48;;;;;;;9.18;3.88;;;;;;;;;;5051257;28;20044;-63
2021/10/26 12:05:20;;;;;;;7.13;3.70;;;;;;;;;;5051515;28;20112;-61
2021/10/26 12:07:51;;;;;;;7.70;3.72;;;;;;;;;;5050929;28;20028;-63
2021/10/26 12:10:21;;;;;;;7.25;3.60;;;;;;;;;;5051740;28;20017;-61
2021/10/26 12:12:47;;;;;;;13.13;4.03;;;;;;;;;;5051792;28;20028;-63
2021/10/26 12:15:13;;;;;;;8.68;3.88;;;;;;;;;;5066247;28;20384;-63
2021/10/26 12:17:39;;;;;;;7.72;4.00;;;;;;;;;;5053515;28;20124;-61
2021/10/26 12:20:06;;;;;;;8.77;4.13;;;;;;;;;;5052712;28;20088;-61
2021/10/26 12:22:38;;;;;;;10.25;4.35;;;;;;;;;;5051075;28;20225;-61
2021/10/26 12:25:20;;;;;;;7.55;3.83;;;;;;;;;;5056903;28;20430;-61
2021/10/26 12:27:46;;;;;;;6.60;4.03;;;;;;;;;;5053550;28;20029;-62
2021/10/26 12:30:13;;;;;;;9.68;4.13;;;;;;;;;;5052248;28;20016;-61
2021/10/26 12:32:58;;;;;;;11.73;4.40;;;;;;;;;;5053341;28;20278;-61
2021/10/26 12:35:25;;;;;;;11.02;4.20;;;;;;;;;;5055402;28;20025;-62
2021/10/26 12:38:04;;;;;;;8.02;4.22;;;;;;;;;;5050899;28;20055;-62
2021/10/26 12:40:38;;;;;;;7.55;3.95;;;;;;;;;;5043415;28;20048;-62
2021/10/26 12:43:06;;;;;;;10.50;4.35;;;;;;;;;;5050567;28;20099;-62
2021/10/26 12:45:36;;;;;;;8.10;3.97;;;;;;;;;;5064709;28;20034;-62
2021/10/26 12:48:02;;;;;;;9.35;3.85;;;;;;;;;;5053136;28;20018;-62
2021/10/26 12:51:03;;;;;;;7.60;3.50;;;;;;;;;;5051913;28;20457;-63
2021/10/26 12:53:33;;;;;;;8.75;4.55;;;;;;;;;;5053745;28;20037;-62
2021/10/26 12:56:00;;;;;;;10.65;4.63;;;;;;;;;;5053129;28;20529;-62
2021/10/26 12:58:32;;;;;;;7.93;4.15;;;;;;;;;;5050435;28;20111;-62
2021/10/26 13:00:58;;;;;;;10.82;4.60;;;;;;;;;;5048593;28;20412;-62
2021/10/26 13:03:24;;;;;;;10.73;4.90;;;;;;;;;;5053676;28;20496;-62
2021/10/26 13:05:53;;;;;;;11.93;4.70;;;;;;;;;;5054265;28;20099;-62
2021/10/26 13:08:19;;;;;;;10.30;5.03;;;;;;;;;;5051158;28;20031;-62
2021/10/26 13:10:46;;;;;;;7.78;4.43;;;;;;;;;;5050292;28;20060;-62
2021/10/26 13:13:14;;;;;;;9.65;4.72;;;;;;;;;;5050465;28;20029;-62
2021/10/26 13:15:43;;;;;;;11.30;4.78;;;;;;;;;;5065366;28;20048;-62
2021/10/26 13:18:13;;;;;;;11.30;5.32;;;;;;;;;;5051288;28;20123;-62
2021/10/26 13:20:44;;;;;;;8.77;4.05;;;;;;;;;;5052962;28;20025;-63
2021/10/26 13:23:10;;;;;;;9.38;4.63;;;;;;;;;;5049774;28;20477;-63
2021/10/26 13:25:43;;;;;;;14.73;4.80;;;;;;;;;;5055774;28;20029;-62
2021/10/26 13:28:09;;;;;;;11.70;4.40;;;;;;;;;;5050482;28;20049;-62
2021/10/26 13:30:47;;;;;;;16.52;7.28;;;;;;;;;;5050425;28;20152;-62
2021/10/26 13:33:13;;;;;;;;;;;;;;;;;;5052025;28;20042;-61
2021/10/26 13:35:41;;;;;;;19.23;10.40;;;;;;;;;;5054463;28;19912;-63
2021/10/26 13:38:07;;;;;;;10.25;5.43;;;;;;;;;;5049527;28;20033;-62
2021/10/26 13:40:33;;;;;;;12.25;5.07;;;;;;;;;;5049795;28;20440;-63
2021/10/26 13:42:59;;;;;;;10.68;6.57;;;;;;;;;;5050030;28;20472;-63
2021/10/26 13:45:26;;;;;;;10.30;4.38;;;;;;;;;;5063803;28;20105;-62
2021/10/26 13:47:55;;;;;;;9.93;5.97;;;;;;;;;;5052710;28;20029;-63
2021/10/26 13:50:21;;;;;;;8.60;4.93;;;;;;;;;;5050519;28;20137;-62
2021/10/26 13:52:47;;;;;;;11.27;4.80;;;;;;;;;;5049496;28;20047;-62
2021/10/26 13:55:13;;;;;;;11.57;4.60;;;;;;;;;;5055063;28;20032;-62
2021/10/26 13:57:41;;;;;;;10.57;4.75;;;;;;;;;;5049449;28;20025;-62
2021/10/26 14:00:10;;;;;;;7.77;4.00;;;;;;;;;;5051525;28;20017;-62
2021/10/26 14:02:37;;;;;;;13.48;6.13;;;;;;;;;;5051501;28;20056;-62
2021/10/26 14:05:04;;;;;;;9.80;4.88;;;;;;;;;;5052285;28;20112;-62
2021/10/26 14:07:30;;;;;;;13.57;5.83;;;;;;;;;;5049280;28;20040;-62
2021/10/26 14:09:56;;;;;;;10.93;5.55;;;;;;;;;;5049199;28;20024;-63
2021/10/26 14:12:22;;;;;;;14.38;7.13;;;;;;;;;;5048833;28;20090;-62
2021/10/26 14:14:48;;;;;;;13.13;5.95;;;;;;;;;;5066611;28;20101;-63
2021/10/26 14:17:14;;;;;;;11.07;5.28;;;;;;;;;;5049070;28;20025;-62
2021/10/26 14:19:40;;;;;;;18.05;8.73;;;;;;;;;;5048931;28;20028;-63
2021/10/26 14:22:06;;;;;;;16.20;7.20;;;;;;;;;;5048784;28;20055;-62
2021/10/26 14:24:32;;;;;;;18.13;7.47;;;;;;;;;;5054411;28;20535;-62
2021/10/26 14:27:00;;;;;;;14.27;6.90;;;;;;;;;;5051617;28;20025;-62
2021/10/26 14:29:26;;;;;;;13.00;6.10;;;;;;;;;;5050079;28;20055;-62
2021/10/26 14:31:52;;;;;;;22.55;9.60;;;;;;;;;;5048617;28;20021;-62
2021/10/26 14:34:23;;;;;;;15.70;6.68;;;;;;;;;;5049629;28;20037;-62
2021/10/26 14:36:58;;;;;;;10.48;5.10;;;;;;;;;;5048918;28;20810;-62
2021/10/26 14:39:51;;;;;;;15.68;6.72;;;;;;;;;;5040695;28;20044;-61
2021/10/26 14:53:36;;;;;;;21.02;7.88;;;;;;;;;;5048334;28;20126;-61
2021/10/26 14:58:25;;;;;;;22.80;9.32;;;;;;;;;;5048050;28;20025;-61